Time;durP1;ratioP1;P1;durP2;ratioP2;P2;SDS_P1;SDS_P2;PMS_P1;PMS_P2;Temp;Humidity;BMP_temperature;BMP_pressure;BME280_temperature;BME280_humidity;BME280_pressure;Samples;Min_cycle;Max_cycle;Signal;HPM_P1;HPM_P2
2021/08/28 00:00:38;;;;;;;23.62;16.70;;;;;;;15.77;100.00;98677.80;1751389;81;20919;-65
2021/08/28 00:03:06;;;;;;;21.02;15.85;;;;;;;15.86;100.00;98669.97;1741472;82;20888;-65
2021/08/28 00:05:35;;;;;;;21.52;16.50;;;;;;;15.86;100.00;98669.97;1759218;81;20952;-65
2021/08/28 00:08:03;;;;;;;21.73;17.10;;;;;;;15.99;100.00;98663.29;1770503;80;21016;-65
2021/08/28 00:10:31;;;;;;;25.32;17.65;;;;;;;15.99;100.00;98663.29;1764922;80;21141;-65
2021/08/28 00:12:58;;;;;;;22.00;15.08;;;;;;;16.02;100.00;98648.09;1739146;81;20912;-65
2021/08/28 00:15:26;;;;;;;17.10;13.18;;;;;;;16.07;100.00;98637.28;1765183;80;20940;-65
2021/08/28 00:17:54;;;;;;;17.15;12.55;;;;;;;16.12;100.00;98637.14;1746871;82;20987;-65
2021/08/28 00:20:22;;;;;;;13.83;11.00;;;;;;;16.15;100.00;98625.05;1745599;80;20983;-65
2021/08/28 00:22:50;;;;;;;14.13;10.70;;;;;;;16.15;100.00;98625.05;1744504;82;21129;-65
2021/08/28 00:25:18;;;;;;;12.23;9.60;;;;;;;16.17;100.00;98632.05;1755712;80;20924;-66
2021/08/28 00:27:46;;;;;;;12.63;9.83;;;;;;;16.17;100.00;98640.50;1756502;80;21470;-66
2021/08/28 00:30:15;;;;;;;12.60;10.00;;;;;;;16.21;100.00;98658.09;1748548;80;21458;-66
2021/08/28 00:32:43;;;;;;;15.35;10.68;;;;;;;16.22;100.00;98669.14;1746680;81;20852;-66
2021/08/28 00:35:11;;;;;;;14.47;10.58;;;;;;;16.20;100.00;98668.33;1746964;81;21130;-66
2021/08/28 00:37:39;;;;;;;13.00;8.68;;;;;;;16.18;100.00;98662.20;1761811;80;20939;-65
2021/08/28 00:40:10;;;;;;;10.18;8.03;;;;;;;16.14;100.00;98662.77;1779286;80;20916;-65
2021/08/28 00:42:51;;;;;;;11.95;9.05;;;;;;;16.11;100.00;98658.89;1779205;80;20992;-65
2021/08/28 00:45:22;;;;;;;16.55;9.28;;;;;;;16.10;100.00;98658.48;1779024;80;21434;-66
2021/08/28 00:48:04;;;;;;;14.35;9.53;;;;;;;16.14;100.00;98669.88;1778401;80;21162;-69
2021/08/28 00:50:37;;;;;;;12.25;8.25;;;;;;;16.17;100.00;98678.62;1765529;80;20972;-69
2021/08/28 00:53:07;;;;;;;10.65;8.30;;;;;;;16.24;100.00;98676.14;1778274;80;21035;-69
2021/08/28 00:55:38;;;;;;;10.80;9.00;;;;;;;16.28;100.00;98677.77;1778810;80;20924;-68
2021/08/28 00:58:06;;;;;;;11.90;8.75;;;;;;;16.28;100.00;98677.77;1778889;80;20939;-68
2021/08/28 01:00:45;;;;;;;12.90;9.23;;;;;;;16.30;100.00;98672.39;1779384;80;21111;-68
2021/08/28 01:03:13;;;;;;;11.80;8.78;;;;;;;16.27;100.00;98661.39;1768543;80;20868;-68
2021/08/28 01:05:52;;;;;;;12.73;7.78;;;;;;;16.22;100.00;98670.02;1740143;81;20931;-66
2021/08/28 01:08:25;;;;;;;10.58;8.20;;;;;;;16.18;100.00;98682.16;1744766;80;21045;-66
2021/08/28 01:11:40;;;;;;;11.25;8.60;;;;;;;16.18;100.00;98682.16;1774688;80;20959;-67
2021/08/28 01:14:15;;;;;;;9.70;7.83;;;;;;;16.13;100.00;98688.10;1777854;80;21242;-67
2021/08/28 01:16:50;;;;;;;8.50;6.97;;;;;;;16.09;100.00;98690.47;1779024;80;20872;-67
2021/08/28 01:19:40;;;;;;;10.65;7.25;;;;;;;16.09;100.00;98690.47;1779185;80;21416;-67
2021/08/28 01:22:14;;;;;;;8.70;6.83;;;;;;;16.10;100.00;98686.88;1750203;80;21015;-66
2021/08/28 01:24:48;;;;;;;9.18;7.15;;;;;;;16.11;100.00;98689.95;1765976;80;20928;-67
2021/08/28 01:27:50;;;;;;;11.10;7.35;;;;;;;16.13;100.00;98680.12;1778308;80;21325;-68
2021/08/28 01:30:20;;;;;;;8.45;6.45;;;;;;;16.13;100.00;98686.77;1748822;80;21451;-68
2021/08/28 01:32:48;;;;;;;9.60;6.60;;;;;;;16.14;100.00;98694.70;1779189;80;21462;-69
2021/08/28 01:35:16;;;;;;;9.40;6.47;;;;;;;16.19;100.00;98699.39;1748919;80;20872;-68
2021/08/28 01:37:44;;;;;;;9.13;6.58;;;;;;;16.26;100.00;98704.91;1749091;80;21565;-68
2021/08/28 01:40:14;;;;;;;10.00;6.70;;;;;;;16.34;100.00;98697.97;1776047;80;21119;-68
2021/08/28 01:42:44;;;;;;;7.45;6.22;;;;;;;16.37;100.00;98687.20;1749429;80;21487;-69
2021/08/28 01:45:13;;;;;;;7.95;6.37;;;;;;;16.43;100.00;98703.41;1749188;80;21022;-68
2021/08/28 01:47:43;;;;;;;8.98;6.67;;;;;;;16.52;100.00;98706.61;1749890;80;21522;-67
2021/08/28 01:50:11;;;;;;;9.13;7.67;;;;;;;16.57;100.00;98699.34;1770393;80;20943;-68
2021/08/28 01:52:39;;;;;;;9.05;6.90;;;;;;;16.59;100.00;98707.27;1715576;82;21144;-68
2021/08/28 01:55:09;;;;;;;9.80;7.42;;;;;;;16.60;100.00;98710.34;1713152;80;20932;-68
2021/08/28 01:57:42;;;;;;;9.68;7.22;;;;;;;16.60;100.00;98710.34;1777017;80;21553;-67
2021/08/28 02:00:27;;;;;;;8.83;7.42;;;;;;;16.63;100.00;98706.23;1679666;85;20908;-68
2021/08/28 02:02:56;;;;;;;9.90;7.70;;;;;;;16.64;100.00;98702.19;1699507;82;20991;-68
2021/08/28 02:05:27;;;;;;;8.78;6.87;;;;;;;16.62;100.00;98705.83;1748552;82;21106;-68
2021/08/28 02:08:04;;;;;;;8.55;6.55;;;;;;;16.59;100.00;98697.95;1747045;82;21441;-69
2021/08/28 02:10:39;;;;;;;8.58;6.22;;;;;;;16.62;100.00;98705.37;1773647;80;21510;-69
2021/08/28 02:13:17;;;;;;;7.67;6.17;;;;;;;16.67;100.00;98706.56;1778915;80;20947;-69
2021/08/28 02:15:47;;;;;;;8.30;6.30;;;;;;;16.70;100.00;98701.11;1778940;80;21541;-69
2021/08/28 02:18:23;;;;;;;7.12;6.12;;;;;;;16.75;100.00;98690.28;1779492;80;21495;-69
2021/08/28 02:21:12;;;;;;;6.67;5.60;;;;;;;16.79;100.00;98696.77;1745683;80;20951;-69
2021/08/28 02:23:49;;;;;;;9.83;6.42;;;;;;;16.87;100.00;98708.45;1744799;82;20859;-67
2021/08/28 02:26:22;;;;;;;6.90;5.28;;;;;;;16.91;100.00;98705.61;1741769;82;21388;-66
2021/08/28 02:28:55;;;;;;;6.83;5.80;;;;;;;16.97;100.00;98695.19;1744668;82;20915;-66
2021/08/28 02:31:24;;;;;;;8.75;6.50;;;;;;;17.02;100.00;98695.00;1744178;80;21140;-67
2021/08/28 02:33:53;;;;;;;7.20;5.45;;;;;;;17.08;100.00;98694.33;1748855;80;21423;-67
2021/08/28 02:36:21;;;;;;;6.45;5.03;;;;;;;17.08;100.00;98694.33;1779091;80;20979;-67
2021/08/28 02:38:49;;;;;;;8.43;4.87;;;;;;;17.12;100.00;98693.74;1749123;80;20995;-67
2021/08/28 02:41:17;;;;;;;6.28;5.35;;;;;;;17.15;100.00;98700.28;1776699;80;21023;-68
2021/08/28 02:43:46;;;;;;;6.80;5.60;;;;;;;17.19;100.00;98696.09;1779333;80;22061;-68
2021/08/28 02:46:16;;;;;;;6.37;5.30;;;;;;;17.21;100.00;98695.57;1779081;80;21553;-68
2021/08/28 02:48:44;;;;;;;7.22;5.33;;;;;;;17.22;100.00;98697.77;1779096;80;21002;-68
2021/08/28 02:51:12;;;;;;;7.85;4.75;;;;;;;17.26;100.00;98689.59;1776710;80;21031;-68
2021/08/28 02:53:46;;;;;;;6.50;5.40;;;;;;;17.31;100.00;98677.41;1779150;80;20936;-68
2021/08/28 02:56:14;;;;;;;7.45;5.30;;;;;;;17.36;100.00;98683.42;1747166;80;21141;-68
2021/08/28 02:58:44;;;;;;;6.62;5.28;;;;;;;17.38;100.00;98692.22;1779008;80;21430;-69
2021/08/28 03:01:12;;;;;;;5.55;4.62;;;;;;;17.39;100.00;98694.42;1751059;80;20900;-68
2021/08/28 03:03:40;;;;;;;5.33;4.40;;;;;;;17.38;100.00;98704.69;1779516;80;20968;-68
2021/08/28 03:06:08;;;;;;;5.17;4.67;;;;;;;17.38;100.00;98708.22;1779098;80;20833;-68
2021/08/28 03:08:43;;;;;;;6.35;4.67;;;;;;;17.40;100.00;98729.02;1779257;80;21021;-68
2021/08/28 03:11:12;;;;;;;6.28;4.92;;;;;;;17.40;100.00;98745.48;1778258;80;20896;-68
2021/08/28 03:13:42;;;;;;;7.12;4.50;;;;;;;17.38;100.00;98728.22;1747698;80;21455;-68
2021/08/28 03:16:13;;;;;;;6.35;4.20;;;;;;;17.36;100.00;98707.88;1747652;80;20979;-69
2021/08/28 03:18:42;;;;;;;4.75;4.10;;;;;;;17.36;100.00;98718.55;1734027;82;21530;-69
2021/08/28 03:21:12;;;;;;;6.65;4.47;;;;;;;17.37;100.00;98722.48;1707978;84;21184;-70
2021/08/28 03:23:40;;;;;;;4.95;3.80;;;;;;;17.37;100.00;98726.48;1770541;80;20920;-70
2021/08/28 03:26:09;;;;;;;5.25;4.33;;;;;;;17.35;100.00;98736.34;1730581;82;20952;-70
2021/08/28 03:28:38;;;;;;;4.28;3.33;;;;;;;17.29;100.00;98748.58;1751985;82;20935;-69
2021/08/28 03:31:05;;;;;;;4.22;3.37;;;;;;;17.27;100.00;98759.77;1759356;81;21408;-69
2021/08/28 03:33:33;;;;;;;4.10;3.30;;;;;;;17.23;100.00;98751.48;1731369;82;21068;-68
2021/08/28 03:36:01;;;;;;;3.92;3.05;;;;;;;17.23;100.00;98752.36;1682791;83;21099;-68
2021/08/28 03:38:29;;;;;;;6.62;3.02;;;;;;;17.21;100.00;98747.55;1770281;81;20940;-69
2021/08/28 03:40:59;;;;;;;5.58;3.40;;;;;;;17.18;100.00;98743.67;1765131;80;21102;-68
2021/08/28 03:43:27;;;;;;;3.87;2.50;;;;;;;17.13;100.00;98743.45;1766394;81;20919;-69
2021/08/28 03:45:56;;;;;;;3.25;2.35;;;;;;;17.13;100.00;98747.45;1770353;81;21119;-68
2021/08/28 03:48:24;;;;;;;4.00;2.02;;;;;;;17.11;100.00;98752.84;1734204;82;20968;-69
2021/08/28 03:50:52;;;;;;;2.20;1.95;;;;;;;17.09;100.00;98755.16;1768428;80;21019;-67
2021/08/28 03:53:20;;;;;;;7.22;1.90;;;;;;;17.05;100.00;98758.41;1727161;82;21110;-68
2021/08/28 03:55:49;;;;;;;2.85;2.15;;;;;;;17.04;100.00;98761.13;1744321;81;20888;-69
2021/08/28 03:58:18;;;;;;;4.90;2.20;;;;;;;17.02;100.00;98773.14;1770189;80;21450;-69
2021/08/28 04:00:47;;;;;;;1.92;1.52;;;;;;;17.00;100.00;98771.88;1733424;82;20873;-68
2021/08/28 04:03:15;;;;;;;2.17;1.60;;;;;;;16.98;100.00;98764.86;1768366;80;21565;-69
2021/08/28 04:05:42;;;;;;;2.58;1.70;;;;;;;16.97;100.00;98767.99;1731913;82;21035;-69
2021/08/28 04:08:12;;;;;;;2.33;1.65;;;;;;;16.95;100.00;98772.52;1756851;81;20992;-69
2021/08/28 04:10:41;;;;;;;2.92;1.50;;;;;;;16.94;100.00;98764.11;1769799;80;21195;-68
2021/08/28 04:13:12;;;;;;;3.00;2.00;;;;;;;16.95;100.00;98767.64;1728337;82;21498;-68
2021/08/28 04:15:40;;;;;;;1.70;1.35;;;;;;;16.93;100.00;98766.37;1747392;80;21482;-68
2021/08/28 04:18:16;;;;;;;3.42;1.62;;;;;;;16.92;100.00;98766.42;1749007;80;20892;-67
2021/08/28 04:20:45;;;;;;;3.20;1.65;;;;;;;16.88;100.00;98765.67;1769345;80;21458;-68
2021/08/28 04:23:15;;;;;;;3.35;1.70;;;;;;;16.84;100.00;98769.38;1753728;80;21131;-68
2021/08/28 04:25:51;;;;;;;2.55;1.60;;;;;;;16.82;100.00;98771.23;1723770;80;20872;-67
2021/08/28 04:28:20;;;;;;;2.85;1.60;;;;;;;16.84;100.00;98781.83;1781079;80;20988;-67
2021/08/28 04:30:48;;;;;;;2.22;1.67;;;;;;;16.81;100.00;98781.95;1759039;80;20999;-67
2021/08/28 04:33:16;;;;;;;2.80;1.40;;;;;;;16.79;100.00;98777.14;1782353;80;20984;-68
2021/08/28 04:35:44;;;;;;;3.95;1.70;;;;;;;16.76;100.00;98785.25;1762790;80;21181;-70
2021/08/28 04:38:12;;;;;;;9.65;1.67;;;;;;;16.73;100.00;98790.22;1746631;82;20986;-68
2021/08/28 04:40:41;;;;;;;3.62;1.98;;;;;;;16.73;100.00;98800.00;1757162;80;20987;-68
2021/08/28 04:43:09;;;;;;;1.85;1.37;;;;;;;16.70;100.00;98811.64;1778953;80;21146;-69
2021/08/28 04:45:48;;;;;;;1.70;1.50;;;;;;;16.63;100.00;98809.63;1770379;80;21106;-69
2021/08/28 04:48:31;;;;;;;3.83;1.70;;;;;;;16.57;100.00;98816.97;1781648;80;21144;-68
2021/08/28 04:50:59;;;;;;;2.33;1.62;;;;;;;16.53;100.00;98816.64;1768210;80;21007;-68
2021/08/28 04:53:28;;;;;;;2.35;1.50;;;;;;;16.47;100.00;98817.72;1725048;80;21031;-68
2021/08/28 04:55:56;;;;;;;3.67;1.70;;;;;;;16.46;100.00;98826.63;1766690;80;21494;-68
2021/08/28 04:58:24;;;;;;;3.85;2.20;;;;;;;16.43;100.00;98824.55;1767994;80;21003;-67
2021/08/28 05:00:59;;;;;;;3.45;1.90;;;;;;;16.43;100.00;98824.55;1778080;80;21095;-68
2021/08/28 05:03:32;;;;;;;2.92;1.95;;;;;;;16.38;100.00;98821.58;1777587;80;20968;-68
2021/08/28 05:06:00;;;;;;;2.70;1.30;;;;;;;16.45;100.00;98832.02;1747013;80;21037;-67
2021/08/28 05:08:28;;;;;;;1.90;1.60;;;;;;;16.47;100.00;98830.17;1762124;80;21089;-67
2021/08/28 05:10:57;;;;;;;3.30;1.80;;;;;;;16.51;100.00;98834.46;1782248;80;20868;-68
2021/08/28 05:13:25;;;;;;;2.90;1.98;;;;;;;16.51;100.00;98834.46;1782225;80;21823;-68
2021/08/28 05:15:53;;;;;;;2.33;1.92;;;;;;;16.53;100.00;98836.61;1782094;80;21458;-68
2021/08/28 05:18:22;;;;;;;1.60;1.50;;;;;;;16.56;100.00;98831.20;1778974;80;21022;-68
2021/08/28 05:20:50;;;;;;;2.50;1.55;;;;;;;16.64;100.00;98841.13;1734437;80;20987;-68
2021/08/28 05:23:22;;;;;;;3.52;1.57;;;;;;;16.72;100.00;98838.22;1771501;80;20999;-65
2021/08/28 05:26:01;;;;;;;2.72;1.30;;;;;;;16.78;100.00;98836.66;1751308;80;21566;-63
2021/08/28 05:28:32;;;;;;;2.00;1.32;;;;;;;16.82;100.00;98840.50;1744299;82;21525;-64
2021/08/28 05:31:00;;;;;;;1.77;1.20;;;;;;;16.87;100.00;98839.86;1754614;80;21683;-64
2021/08/28 05:33:29;;;;;;;1.98;1.20;;;;;;;16.94;100.00;98848.04;1777168;80;21025;-66
2021/08/28 05:35:57;;;;;;;2.10;1.50;;;;;;;17.05;100.00;98847.67;1778267;80;20860;-64
2021/08/28 05:38:27;;;;;;;3.42;1.52;;;;;;;17.11;100.00;98858.11;1776090;80;21403;-64
2021/08/28 05:40:56;;;;;;;4.62;2.35;;;;;;;17.18;100.00;98862.74;1744968;80;20892;-70
2021/08/28 05:43:24;;;;;;;3.27;2.50;;;;;;;17.25;100.00;98868.25;1741060;81;20983;-64
2021/08/28 05:45:55;;;;;;;;;;;;;;;17.32;100.00;98869.76;1755482;80;20947;-65
2021/08/28 05:48:24;;;;;;;3.80;1.82;;;;;;;17.41;100.00;98871.20;1779057;80;20410;-64
2021/08/28 05:50:53;;;;;;;1.92;1.70;;;;;;;17.47;100.00;98870.50;1759736;80;21800;-66
2021/08/28 05:53:22;;;;;;;1.65;1.22;;;;;;;17.54;100.00;98870.70;1762255;80;21490;-65
2021/08/28 05:55:50;;;;;;;1.27;1.17;;;;;;;17.62;100.00;98871.27;1769083;80;21038;-68
2021/08/28 05:58:18;;;;;;;2.72;1.15;;;;;;;17.72;100.00;98877.15;1772152;80;20852;-64
2021/08/28 06:00:45;;;;;;;3.92;1.30;;;;;;;17.79;100.00;98871.11;1758271;80;20865;-66
2021/08/28 06:03:13;;;;;;;1.77;1.10;;;;;;;17.87;100.00;98877.88;1745374;80;21178;-68
2021/08/28 06:05:41;;;;;;;4.40;1.10;;;;;;;17.95;100.00;98877.56;1763295;80;20943;-67
2021/08/28 06:08:18;;;;;;;3.17;1.10;;;;;;;18.03;100.00;98882.16;1758270;80;21199;-69
2021/08/28 06:10:58;;;;;;;1.77;1.00;;;;;;;18.09;100.00;98885.91;1768868;80;21098;-66
2021/08/28 06:13:45;;;;;;;2.90;1.20;;;;;;;18.15;100.00;98884.80;1763179;80;21020;-64
2021/08/28 06:16:14;;;;;;;3.50;1.12;;;;;;;18.22;100.00;98888.48;1771448;80;21415;-64
2021/08/28 06:18:44;;;;;;;2.95;1.40;;;;;;;18.28;100.00;98891.83;1755346;81;20944;-66
2021/08/28 06:21:15;;;;;;;1.25;0.95;;;;;;;18.33;100.00;98899.19;1762947;80;21400;-65
2021/08/28 06:23:43;;;;;;;1.32;1.17;;;;;;;18.43;100.00;98898.73;1724241;82;20939;-66
2021/08/28 06:26:28;;;;;;;2.27;1.00;;;;;;;18.53;100.00;98898.78;1697871;83;21394;-65
2021/08/28 06:28:56;;;;;;;1.20;1.05;;;;;;;18.65;100.00;98900.56;1699440;83;21147;-68
2021/08/28 06:31:25;;;;;;;2.10;1.42;;;;;;;18.73;100.00;98897.95;1687742;84;21674;-63
2021/08/28 06:33:52;;;;;;;1.27;1.10;;;;;;;18.81;100.00;98897.16;1762686;80;20971;-62
2021/08/28 06:36:20;;;;;;;1.17;1.00;;;;;;;18.86;100.00;98893.81;1752712;80;20920;-63
2021/08/28 06:39:03;;;;;;;2.40;1.10;;;;;;;18.96;100.00;98900.12;1741743;81;20959;-67
2021/08/28 06:41:42;;;;;;;1.72;0.95;;;;;;;19.03;100.00;98899.79;1735210;81;22029;-71
2021/08/28 06:44:29;;;;;;;1.40;1.10;;;;;;;19.15;100.00;98909.06;1756695;80;21368;-67
2021/08/28 06:47:17;;;;;;;1.17;0.90;;;;;;;19.18;100.00;98904.91;1678524;84;20995;-67
2021/08/28 06:50:04;;;;;;;1.20;1.10;;;;;;;19.24;100.00;98900.62;1676155;84;21151;-70
2021/08/28 06:52:50;;;;;;;3.42;1.25;;;;;;;19.32;100.00;98904.29;1732109;80;21019;-71
2021/08/28 06:55:38;;;;;;;2.60;1.17;;;;;;;19.42;100.00;98898.95;1769833;80;22448;-69
2021/08/28 06:58:24;;;;;;;2.77;1.10;;;;;;;19.54;100.00;98898.42;1770522;81;20984;-68
2021/08/28 07:01:11;;;;;;;1.95;1.40;;;;;;;19.62;100.00;98898.92;1770628;81;21020;-67
2021/08/28 07:03:57;;;;;;;2.02;1.40;;;;;;;19.72;100.00;98896.22;1770861;80;20885;-70
2021/08/28 07:06:30;;;;;;;2.55;1.45;;;;;;;19.85;100.00;98899.17;1767159;80;20912;-70
2021/08/28 07:08:57;;;;;;;1.65;1.30;;;;;;;19.95;100.00;98891.60;1770913;80;21094;-70
2021/08/28 07:11:25;;;;;;;2.85;1.25;;;;;;;20.04;100.00;98895.17;1733846;82;20968;-70
2021/08/28 07:13:53;;;;;;;3.42;1.20;;;;;;;20.12;100.00;98893.86;1734271;82;20983;-70
2021/08/28 07:16:25;;;;;;;2.10;1.60;;;;;;;20.21;100.00;98894.34;1770517;80;21015;-70
2021/08/28 07:18:53;;;;;;;2.30;1.75;;;;;;;20.29;100.00;98890.34;1745962;82;20971;-70
2021/08/28 07:21:22;;;;;;;1.85;1.40;;;;;;;20.34;100.00;98882.11;1745540;82;22042;-70
2021/08/28 07:23:50;;;;;;;1.98;1.65;;;;;;;20.36;100.00;98881.56;1745558;82;20927;-70
2021/08/28 07:26:19;;;;;;;2.45;1.70;;;;;;;20.43;100.00;98883.02;1733675;81;20935;-70
2021/08/28 07:28:49;;;;;;;3.02;1.50;;;;;;;20.52;100.00;98883.89;1744839;81;20947;-70
2021/08/28 07:31:31;;;;;;;13.95;1.60;;;;;;;20.61;100.00;98882.55;1743834;81;21414;-68
2021/08/28 07:34:02;;;;;;;1.92;1.40;;;;;;;20.67;100.00;98881.77;1745399;81;21513;-69
2021/08/28 07:36:31;;;;;;;1.72;1.40;;;;;;;20.72;100.00;98886.42;1745871;81;20888;-69
2021/08/28 07:38:59;;;;;;;1.57;1.47;;;;;;;20.80;100.00;98884.68;1745591;81;21467;-69
2021/08/28 07:41:29;;;;;;;2.47;1.30;;;;;;;20.90;100.00;98886.44;1745925;81;20888;-70
2021/08/28 07:44:00;;;;;;;2.58;1.40;;;;;;;20.97;100.00;98888.72;1745638;81;20849;-69
2021/08/28 07:46:29;;;;;;;2.08;1.42;;;;;;;21.10;100.00;98893.44;1745546;81;21407;-69
2021/08/28 07:48:58;;;;;;;1.80;1.50;;;;;;;21.17;100.00;98890.34;1739633;81;20876;-69
2021/08/28 07:51:27;;;;;;;1.65;1.40;;;;;;;21.27;100.00;98886.25;1745607;81;21446;-69
2021/08/28 07:53:56;;;;;;;3.95;1.35;;;;;;;21.34;100.00;98890.38;1745597;81;20862;-68
2021/08/28 07:56:24;;;;;;;2.35;1.52;;;;;;;21.44;100.00;98888.53;1745566;81;20880;-68
2021/08/28 07:58:53;;;;;;;3.47;1.40;;;;;;;21.53;100.00;98883.53;1745628;81;21104;-69
2021/08/28 08:01:21;;;;;;;1.50;1.40;;;;;;;21.64;100.00;98886.96;1745548;82;20927;-69
2021/08/28 08:03:49;;;;;;;2.50;1.30;;;;;;;21.74;100.00;98884.62;1745565;81;21553;-68
2021/08/28 08:06:20;;;;;;;2.75;1.45;;;;;;;21.85;100.00;98877.73;1745789;82;20955;-68
2021/08/28 08:09:07;;;;;;;4.55;1.47;;;;;;;21.97;100.00;98877.52;1745643;82;20927;-70
2021/08/28 08:11:56;;;;;;;1.47;1.10;;;;;;;22.10;100.00;98879.93;1745611;81;20864;-68
2021/08/28 08:14:38;;;;;;;1.57;1.42;;;;;;;22.22;100.00;98879.22;1710241;81;20892;-70
2021/08/28 08:17:24;;;;;;;2.08;1.50;;;;;;;22.34;100.00;98883.05;1754629;80;20939;-68
2021/08/28 08:20:13;;;;;;;3.17;1.20;;;;;;;22.46;100.00;98882.80;1779686;79;20992;-69
2021/08/28 08:23:03;;;;;;;1.47;1.30;;;;;;;22.58;100.00;98882.08;1779835;80;21002;-70
2021/08/28 08:25:43;;;;;;;2.05;1.50;;;;;;;22.68;100.00;98881.92;1691706;80;21227;-71
2021/08/28 08:28:28;;;;;;;2.02;1.30;;;;;;;22.78;100.00;98885.82;1659589;85;21030;-70
2021/08/28 08:31:19;;;;;;;3.25;1.10;;;;;;;22.88;100.00;98890.20;1732498;81;20920;-70
2021/08/28 08:33:44;;;;;;;1.62;1.52;;;;;;;22.94;100.00;98884.45;1731206;81;20967;-70
2021/08/28 08:36:14;;;;;;;1.50;1.17;;;;;;;23.04;100.00;98888.31;1732444;81;21578;-69
2021/08/28 08:38:42;;;;;;;1.80;1.50;;;;;;;23.16;100.00;98892.94;1732457;81;21837;-70
2021/08/28 08:41:14;;;;;;;1.60;1.30;;;;;;;23.26;100.00;98895.09;1732435;81;20975;-70
2021/08/28 08:43:45;;;;;;;3.33;1.35;;;;;;;23.32;100.00;98904.13;1713625;81;20896;-70
2021/08/28 08:46:15;;;;;;;1.15;1.05;;;;;;;23.41;100.00;98900.38;1732639;81;20982;-70
2021/08/28 08:48:43;;;;;;;2.20;1.27;;;;;;;23.50;100.00;98903.84;1732453;81;20892;-70
2021/08/28 08:51:22;;;;;;;3.80;1.70;;;;;;;23.61;100.00;98900.51;1732367;81;21196;-70
2021/08/28 08:53:48;;;;;;;1.55;1.35;;;;;;;23.72;100.00;98907.46;1734546;81;21468;-69
2021/08/28 08:56:18;;;;;;;2.65;1.40;;;;;;;23.83;100.00;98902.25;1732824;81;21478;-70
2021/08/28 08:58:50;;;;;;;1.67;1.42;;;;;;;23.95;100.00;98903.77;1732474;81;20943;-70
2021/08/28 09:01:19;;;;;;;10.85;1.60;;;;;;;24.02;100.00;98895.19;1732682;81;20892;-70
2021/08/28 09:03:46;;;;;;;1.90;1.40;;;;;;;24.10;100.00;98897.38;1732395;81;21146;-70
2021/08/28 09:06:20;;;;;;;1.95;1.35;;;;;;;24.21;100.00;98894.02;1732710;81;21491;-70
2021/08/28 09:08:50;;;;;;;1.45;1.32;;;;;;;24.27;95.65;98885.52;1732450;81;21093;-69
2021/08/28 09:11:30;;;;;;;2.02;1.40;;;;;;;24.37;95.54;98892.06;1732371;81;20980;-69
2021/08/28 09:14:18;;;;;;;1.82;1.20;;;;;;;24.47;94.77;98890.00;1732416;81;20924;-69
2021/08/28 09:16:46;;;;;;;2.22;1.50;;;;;;;24.58;95.63;98891.97;1732641;81;21500;-70
2021/08/28 09:19:18;;;;;;;2.02;1.50;;;;;;;24.68;92.12;98891.77;1740994;81;21510;-70
2021/08/28 09:21:45;;;;;;;1.62;1.50;;;;;;;24.73;91.42;98892.31;1713022;82;20884;-69
2021/08/28 09:24:15;;;;;;;2.45;1.70;;;;;;;24.80;91.09;98896.81;1742101;82;20905;-70
2021/08/28 09:26:50;;;;;;;1.87;1.50;;;;;;;24.88;91.64;98901.20;1712784;83;20954;-70
2021/08/28 09:29:15;;;;;;;2.60;1.50;;;;;;;24.95;91.48;98895.76;1778756;80;21828;-70
2021/08/28 09:31:49;;;;;;;1.60;1.37;;;;;;;25.00;87.01;98905.78;1779267;80;20964;-70
2021/08/28 09:34:24;;;;;;;3.37;1.40;;;;;;;24.92;82.62;98897.31;1778990;80;20931;-69
2021/08/28 09:37:11;;;;;;;2.50;1.32;;;;;;;24.85;81.73;98890.61;1779344;80;20974;-70
2021/08/28 09:39:46;;;;;;;1.47;1.37;;;;;;;24.90;84.85;98892.52;1779083;80;20936;-69
2021/08/28 09:42:22;;;;;;;1.70;1.40;;;;;;;25.01;84.27;98897.20;1779032;80;21315;-68
2021/08/28 09:44:51;;;;;;;2.02;1.32;;;;;;;25.09;81.19;98898.91;1748575;80;21414;-69
2021/08/28 09:47:29;;;;;;;1.62;1.30;;;;;;;25.09;79.06;98903.83;1779332;80;20921;-69
2021/08/28 09:49:55;;;;;;;2.25;1.60;;;;;;;25.13;76.28;98896.86;1778939;80;21536;-69
2021/08/28 09:52:25;;;;;;;1.50;1.30;;;;;;;25.24;75.76;98902.38;1779500;80;21473;-69
2021/08/28 09:54:59;;;;;;;2.77;1.30;;;;;;;25.36;75.43;98902.86;1779441;80;21184;-68
2021/08/28 09:57:28;;;;;;;13.18;2.65;;;;;;;25.48;74.98;98900.64;1773018;80;21544;-62
2021/08/28 10:00:00;;;;;;;1.75;1.42;;;;;;;25.60;76.87;98896.23;1763089;80;21149;-70
2021/08/28 10:02:27;;;;;;;2.43;1.33;;;;;;;25.73;75.99;98894.41;1763906;80;20991;-69
2021/08/28 10:04:58;;;;;;;1.40;1.30;;;;;;;25.82;75.36;98895.59;1779136;80;21219;-63
2021/08/28 10:07:31;;;;;;;4.33;1.65;;;;;;;25.88;73.09;98891.09;1774200;80;21137;-64
2021/08/28 10:10:03;;;;;;;1.20;1.10;;;;;;;25.93;73.13;98891.61;1767859;80;20991;-67
2021/08/28 10:12:34;;;;;;;2.05;1.37;;;;;;;26.02;74.42;98887.78;1779204;80;21435;-63
2021/08/28 10:15:05;;;;;;;65.57;2.37;;;;;;;26.12;70.09;98891.16;1778794;80;20904;-64
2021/08/28 10:17:34;;;;;;;2.15;1.37;;;;;;;26.15;67.82;98882.33;1754629;80;20911;-63
2021/08/28 10:20:03;;;;;;;3.25;1.37;;;;;;;26.19;64.41;98885.67;1754666;81;21963;-63
2021/08/28 10:22:34;;;;;;;2.47;1.20;;;;;;;26.20;61.08;98881.98;1767219;80;21537;-65
2021/08/28 10:25:07;;;;;;;1.47;1.32;;;;;;;26.17;61.29;98880.86;1725556;82;21030;-66
2021/08/28 10:27:35;;;;;;;2.52;1.20;;;;;;;26.18;66.46;98890.21;1730637;81;20960;-63
2021/08/28 10:30:05;;;;;;;1.50;1.40;;;;;;;26.29;71.51;98896.17;1748491;79;21490;-61
2021/08/28 10:32:32;;;;;;;2.90;1.37;;;;;;;26.41;72.71;98897.13;1732789;81;21110;-62
2021/08/28 10:35:02;;;;;;;5.97;1.42;;;;;;;26.50;71.91;98898.69;1729838;81;21032;-62
2021/08/28 10:37:30;;;;;;;2.77;1.32;;;;;;;26.62;73.85;98905.88;1728787;81;21053;-62
2021/08/28 10:39:59;;;;;;;1.52;1.37;;;;;;;26.76;72.91;98904.83;1728583;81;21459;-61
2021/08/28 10:42:30;;;;;;;1.82;1.22;;;;;;;26.90;70.25;98905.98;1766612;79;20887;-63
2021/08/28 10:44:58;;;;;;;1.52;1.40;;;;;;;26.96;64.36;98916.37;1757230;80;21215;-62
2021/08/28 10:47:28;;;;;;;2.65;1.60;;;;;;;26.93;59.52;98915.22;1708820;81;20899;-63
2021/08/28 10:50:09;;;;;;;1.90;1.30;;;;;;;26.77;57.35;98917.86;1765173;80;21445;-63
2021/08/28 10:52:39;;;;;;;1.80;1.12;;;;;;;26.63;57.27;98908.09;1765926;80;21002;-62
2021/08/28 10:55:10;;;;;;;1.42;1.32;;;;;;;26.55;55.88;98912.73;1770064;80;21416;-62
2021/08/28 10:57:38;;;;;;;1.62;1.40;;;;;;;26.49;55.50;98917.70;1770087;79;21446;-62
2021/08/28 11:00:14;;;;;;;2.65;1.37;;;;;;;26.41;55.64;98909.30;1773277;80;21524;-62
2021/08/28 11:02:58;;;;;;;3.87;1.50;;;;;;;26.36;58.64;98911.00;1769483;79;20943;-63
2021/08/28 11:05:31;;;;;;;1.75;1.25;;;;;;;26.39;61.73;98913.47;1773756;79;20970;-61
2021/08/28 11:08:22;;;;;;;1.55;1.02;;;;;;;26.44;58.64;98909.07;1772605;80;20953;-62
2021/08/28 11:11:24;;;;;;;1.87;1.47;;;;;;;26.52;58.20;98916.16;1732280;81;21149;-61
2021/08/28 11:14:01;;;;;;;3.57;1.37;;;;;;;26.60;60.62;98924.55;1745357;80;20982;-61
2021/08/28 11:16:46;;;;;;;1.50;1.30;;;;;;;26.71;63.53;98914.27;1732396;81;20883;-61
2021/08/28 11:19:27;;;;;;;1.50;1.30;;;;;;;26.82;63.26;98920.59;1736509;82;20924;-63
2021/08/28 11:21:55;;;;;;;1.32;1.20;;;;;;;26.96;65.17;98923.59;1735362;81;20909;-62
2021/08/28 11:24:24;;;;;;;6.53;1.60;;;;;;;27.02;61.09;98919.13;1739471;81;21159;-62
2021/08/28 11:27:04;;;;;;;1.37;1.20;;;;;;;27.07;61.74;98916.06;1735465;82;21533;-63
2021/08/28 11:29:43;;;;;;;6.62;1.47;;;;;;;27.19;62.97;98911.05;1766202;80;20974;-63
2021/08/28 11:32:23;;;;;;;1.07;0.98;;;;;;;27.36;63.28;98909.72;1765032;79;20950;-63
2021/08/28 11:34:54;;;;;;;5.58;1.30;;;;;;;27.51;61.24;98901.77;1701490;83;20931;-63
2021/08/28 11:37:38;;;;;;;1.92;1.30;;;;;;;27.66;58.90;98900.58;1688695;83;21804;-63
2021/08/28 11:40:27;;;;;;;1.20;1.10;;;;;;;27.64;53.82;98898.97;1729164;81;20962;-62
2021/08/28 11:42:56;;;;;;;2.55;1.35;;;;;;;27.66;54.11;98895.65;1761601;80;20904;-63
2021/08/28 11:45:36;;;;;;;1.42;1.22;;;;;;;27.69;52.34;98897.62;1778972;80;21549;-63
2021/08/28 11:48:13;;;;;;;1.22;1.10;;;;;;;27.69;49.95;98896.27;1778457;80;20928;-64
2021/08/28 11:50:42;;;;;;;1.85;1.02;;;;;;;27.76;50.41;98894.78;1779483;80;21769;-63